• Join FlightAware (Why Join?)
  • Login
  • US Flag 
02:05PM EDT


 

Airport Tracker/Info


-or-


 

Live Flight TrackerFlight Track Log ✈ GJS3691 ✈ 09-May-2013 ✈ KAUS - KORD

Flight Track Log - Related Links

Times and Time Zones

All times are in EDT time to prevent confusion due to time zone crossing. See the GJS3691 flight status page for this flight to view local times or setup timezone preferences in your user account.

Time Position Orientation Groundspeed Altitude Reporting Facility
EDT Latitude Longitude Course Direction KTS MPH feet Rate Location/Type
09:02PM 30.3258 -97.7836 326° Northwest 247 284 5,100  Level Houston Center
09:03PM 30.5548 -97.6520 323° Northwest  Level FlightAware Approximate
09:03PM 30.3897 -97.8336 326° Northwest 292 336 7,800  Level Houston Center
09:04PM 30.6455 -97.7314 323° Northwest  Level FlightAware Approximate
09:04PM 30.4625 -97.8589 343° North 275 316 10,600  Level Houston Center
09:05PM 30.7406 -97.8019 326° Northwest  Level FlightAware Approximate
09:05PM 30.5414 -97.8881 342° North 285 328 11,900  Level Houston Center
09:06PM 30.8391 -97.8783 326° Northwest  Level FlightAware Approximate
09:06PM 30.6547 -97.9333 341° North 352 405 13,900  Level Houston Center
09:07PM 30.9375 -97.9549 326° Northwest  Level FlightAware Approximate
09:07PM 30.7581 -97.9528 351° North 367 422 16,100  Level Houston Center
09:08PM 30.8683 -97.9597 357° North 386 444 17,900 1,740 Climbing Houston Center
09:09PM 30.9814 -97.9447 North 407 468 19,800 1,620 Climbing Houston Center
09:10PM 31.0961 -97.9006 18° North 426 490 21,300 1,440 Climbing Houston Center
09:11PM 31.1728 -97.8722 18° North 425 489 22,300 1,500 Climbing Fort Worth Center
09:12PM 31.3025 -97.8219 18° North 431 496 23,800 1,260 Climbing Fort Worth Center
09:13PM 31.4111 -97.7469 31° Northeast 437 503 24,900 1,020 Climbing Fort Worth Center
09:14PM 31.5219 -97.6692 31° Northeast 453 521 25,900 960 Climbing Fort Worth Center
09:15PM 31.6472 -97.6281 16° North 453 521 26,900 960 Climbing Fort Worth Center
09:16PM 31.7747 -97.5819 17° North 465 535 27,900 1,020 Climbing Fort Worth Center
09:17PM 31.9022 -97.5381 16° North 470 541 29,000 1,140 Climbing Fort Worth Center
09:18PM 32.0211 -97.4917 18° North 460 529 30,200 1,080 Climbing Fort Worth Center
09:19PM 32.1464 -97.4503 16° North 460 529 31,200 960 Climbing Fort Worth Center
09:20PM 32.2717 -97.4036 17° North 465 535 32,200 960 Climbing Fort Worth Center
09:21PM 32.3950 -97.3592 17° North 465 535 33,200 1,020 Climbing Fort Worth Center
09:22PM 32.5181 -97.3147 17° North 459 528 34,300 840 Climbing Fort Worth Center
09:23PM 32.6433 -97.2678 18° North 459 528 34,900 540 Climbing Fort Worth Center
09:24PM 32.7706 -97.2208 17° North 465 535 35,500 600 Climbing Fort Worth Center
09:25PM 32.8958 -97.1711 18° North 471 542 36,200 900 Climbing Fort Worth Center
09:26PM 33.0167 -97.0914 29° Northeast 477 549 37,300 900 Climbing Fort Worth Center
09:27PM 33.1292 -97.0142 30° Northeast 477 549 38,100 600 Climbing Fort Worth Center
09:28PM 33.2436 -96.9317 31° Northeast 469 540 38,600 420 Climbing Fort Worth Center
09:29PM 33.3478 -96.8664 28° Northeast 463 533 39,000 180 Climbing Fort Worth Center
09:30PM 33.4725 -96.7783 30° Northeast 471 542 39,000  Level Fort Worth Center
09:31PM 33.5744 -96.7028 32° Northeast 471 542 39,000  Level Fort Worth Center
09:32PM 33.7056 -96.6119 30° Northeast 482 555 39,000  Level Fort Worth Center
09:33PM 33.8258 -96.5258 31° Northeast 487 560 39,000  Level Fort Worth Center
09:34PM 33.9381 -96.4447 31° Northeast 482 555 39,000  Level Fort Worth Center
09:35PM 34.0561 -96.3581 31° Northeast 488 562 39,000  Level Fort Worth Center
09:36PM 34.1767 -96.2739 30° Northeast 488 562 39,000  Level Fort Worth Center
09:37PM 34.2925 -96.1892 31° Northeast 488 562 39,000  Level Fort Worth Center
09:38PM 34.4086 -96.1047 31° Northeast 488 562 39,000  Level Fort Worth Center
09:39PM 34.5244 -96.0197 31° Northeast 488 562 39,000  Level Fort Worth Center
09:40PM 34.6425 -95.9344 31° Northeast 488 562 39,000  Level Fort Worth Center
09:41PM 34.7583 -95.8492 31° Northeast 488 562 39,000  Level Fort Worth Center
09:42PM 34.8758 -95.7558 33° Northeast 494 568 39,000  Level Fort Worth Center
09:43PM 34.9914 -95.6547 36° Northeast 494 568 39,000  Level Fort Worth Center
09:44PM 35.1006 -95.5483 39° Northeast 505 581 39,000  Level Fort Worth Center
09:45PM 35.2136 -95.4442 37° Northeast 505 581 39,000  Level Fort Worth Center
09:45PM 35.2925 -95.3683 38° Northeast 502 578 39,000  Level Memphis Center
09:46PM 35.3944 -95.2700 38° Northeast 514 592 39,000  Level Memphis Center
09:47PM 35.5072 -95.1619 38° Northeast 514 592 39,000  Level Memphis Center
09:48PM 35.6219 -95.0536 37° Northeast 514 592 39,000  Level Memphis Center
09:49PM 35.7367 -94.9425 38° Northeast 514 592 39,000  Level Memphis Center
09:50PM 35.8489 -94.8336 38° Northeast 509 586 39,000  Level Memphis Center
09:51PM 35.9711 -94.7403 32° Northeast 509 586 39,000  Level Memphis Center
09:54PM 36.2794 -94.5550 26° Northeast 511 588 39,000  Level Kansas City Center
09:55PM 36.4100 -94.4850 23° Northeast 511 588 39,000  Level Kansas City Center
09:56PM 36.5406 -94.4161 23° Northeast 511 588 39,000  Level Kansas City Center
09:57PM 36.6689 -94.3442 24° Northeast 508 585 39,000  Level Kansas City Center
09:58PM 36.8000 -94.2744 23° Northeast 511 588 39,000  Level Kansas City Center
09:59PM 36.9317 -94.2053 23° Northeast 513 590 39,000  Level Kansas City Center
10:00PM 37.0828 -94.1011 29° Northeast 524 603 39,000  Level Kansas City Center
10:01PM 37.2003 -93.9864 38° Northeast 523 602 39,000  Level Kansas City Center
10:02PM 37.3144 -93.8722 38° Northeast 522 601 39,000  Level Kansas City Center
10:03PM 37.4311 -93.7583 38° Northeast 526 605 39,000  Level Kansas City Center
10:04PM 37.5486 -93.6467 37° Northeast 526 605 39,000  Level Kansas City Center
10:05PM 37.6589 -93.5233 42° Northeast 529 609 39,000  Level Kansas City Center
10:06PM 37.7708 -93.3958 42° Northeast 536 617 39,000  Level Kansas City Center
10:07PM 37.8803 -93.2706 42° Northeast 531 611 39,000  Level Kansas City Center
10:08PM 37.9900 -93.1419 43° Northeast 531 611 39,000  Level Kansas City Center
10:09PM 38.1022 -93.0125 42° Northeast 537 618 39,000  Level Kansas City Center
10:10PM 38.2119 -92.8842 43° Northeast 534 615 39,000  Level Kansas City Center
10:11PM 38.3214 -92.7567 42° Northeast 530 610 39,000  Level Kansas City Center
10:12PM 38.4317 -92.6261 43° Northeast 531 611 39,000  Level Kansas City Center
10:13PM 38.5389 -92.5003 43° Northeast 525 604 39,000  Level Kansas City Center
10:14PM 38.6442 -92.3744 43° Northeast 517 595 39,000  Level Kansas City Center
10:15PM 38.7481 -92.2481 43° Northeast 513 590 39,000  Level Kansas City Center
10:16PM 38.8739 -92.0994 43° Northeast 511 588 39,000  Level Kansas City Center
10:17PM 38.9778 -91.9739 43° Northeast 510 587 39,000  Level Kansas City Center
10:18PM 39.0806 -91.8511 43° Northeast 505 581 39,000  Level Kansas City Center
10:19PM 39.1822 -91.7261 44° Northeast 504 580 39,000  Level Kansas City Center
10:20PM 39.2908 -91.5972 43° Northeast 503 579 39,000  Level Kansas City Center
10:21PM 39.4006 -91.4839 39° Northeast 504 580 39,000  Level Kansas City Center
10:22PM 39.5058 -91.3756 38° Northeast 501 577 39,000  Level Kansas City Center
10:23PM 39.6186 -91.2572 39° Northeast 502 578 39,000  Level Kansas City Center
10:24PM 39.7267 -91.1433 39° Northeast 502 578 39,000  Level Kansas City Center
10:25PM 39.8264 -91.0378 39° Northeast 498 573 39,000 -60 Level Kansas City Center
10:27PM 39.9514 -90.9056 39° Northeast 498 573 38,900 -1,080 Descending Kansas City Center
10:28PM 40.0597 -90.7900 39° Northeast 500 575 36,800 -1,980 Descending Kansas City Center
10:28PM 40.1267 -90.7167 40° Northeast 512 589 35,600 -2,040 Descending Chicago Center
10:29PM 40.2394 -90.5975 39° Northeast 524 603 33,400 -1,320 Descending Chicago Center
10:30PM 40.3369 -90.4686 45° Northeast 503 579 33,000 -780 Descending Chicago Center
10:31PM 40.4306 -90.3339 48° Northeast 498 573 31,900 -1,320 Descending Chicago Center
10:32PM 40.5278 -90.1908 48° Northeast 493 567 30,300 -1,440 Descending Chicago Center
10:33PM 40.6172 -90.0617 48° Northeast 480 552 29,000 -660 Descending Chicago Center
10:34PM 40.7214 -89.9089 48° Northeast 471 542 29,000 -840 Level Chicago Center
10:35PM 40.8044 -89.7792 50° Northeast 466 536 27,400 -1,620 Descending Chicago Center
10:36PM 40.8875 -89.6544 49° Northeast 454 522 25,800 -1,620 Descending Chicago Center
10:37PM 40.9675 -89.5256 51° Northeast 434 499 24,100 -900 Descending Chicago Center
10:38PM 41.0417 -89.4044 51° Northeast 425 489 24,000 -660 Descending Chicago Center
10:39PM 41.1178 -89.2806 51° Northeast 432 497 22,800 -1,800 Descending Chicago Center
10:40PM 41.1853 -89.1708 51° Northeast 417 480 20,400 -2,460 Descending Chicago Center
10:42PM 41.2547 -89.0558 51° Northeast 401 461 17,800 -2,520 Descending Chicago Center
10:43PM 41.3344 -88.9219 52° Northeast 387 445 15,300 -2,220 Descending Chicago Center
10:44PM 41.4011 -88.8108 51° Northeast 383 441 13,300 -2,040 Descending Chicago Center
10:45PM 41.4650 -88.7069 51° Northeast 365 420 11,200 -1,140 Descending Chicago Center
10:46PM 41.5225 -88.6086 52° Northeast 336 387 11,000 -300 Descending Chicago Center
10:47PM 41.5767 -88.5186 51° Northeast 314 361 10,700 -780 Descending Chicago Center
10:48PM 41.6314 -88.4264 52° Northeast 315 362 9,500 -1,080 Descending Chicago Center
10:49PM 41.6831 -88.3394 51° Northeast 301 346 8,500 -1,020 Descending Chicago Center
10:50PM 41.7578 -88.3058 19° North 295 339 7,500 -840 Descending Chicago Center
10:51PM 41.8314 -88.2964 North 266 306 6,800 -1,260 Descending Chicago Center
10:52PM 41.9067 -88.2861 North 231 266 5,000 -1,380 Descending Chicago Center
10:53PM 41.9547 -88.2556 25° Northeast 221 254 4,000 -540 Descending Chicago Center
10:54PM 41.9711 -88.1889 72° East 204 235 4,000 -240 Level Chicago Center
10:55PM 41.9675 -88.1194 94° East 194 223 3,600 -780 Descending Chicago Center
10:55PM 41.9667 -88.0833 92° East 192 221 2,900 -1,080 Descending Chicago TRACON
10:56PM 41.9667 -88.0167 90° East 154 177 2,100 -780 Descending Chicago TRACON
10:57PM 41.9667 -87.9667 90° East 122 140 1,400 -720 Descending Chicago TRACON
11:00PM 41.9667 -87.9000 78° East  Level FlightAware Approximate